Time;durP1;ratioP1;P1;durP2;ratioP2;P2;SDS_P1;SDS_P2;PMS_P1;PMS_P2;Temp;Humidity;BMP_temperature;BMP_pressure;BME280_temperature;BME280_humidity;BME280_pressure;Samples;Min_cycle;Max_cycle;Signal;HPM_P1;HPM_P2
2021/06/26 00:01:03;;;;;;;0.40;0.20;;;;;;;15.69;100.00;100506.16;5067518;28;20523;-50
2021/06/26 00:03:30;;;;;;;0.50;0.33;;;;;;;15.53;100.00;100505.97;5070824;28;20848;-50
2021/06/26 00:05:58;;;;;;;0.40;0.30;;;;;;;15.47;100.00;100508.03;5071294;28;20511;-50
2021/06/26 00:08:26;;;;;;;0.57;0.57;;;;;;;15.42;100.00;100510.94;5070974;28;20449;-50
2021/06/26 00:10:53;;;;;;;0.40;0.20;;;;;;;15.57;100.00;100512.91;5071262;28;20849;-50
2021/06/26 00:13:20;;;;;;;0.40;0.30;;;;;;;15.68;100.00;100507.09;5071374;28;20504;-50
2021/06/26 00:15:47;;;;;;;0.40;0.20;;;;;;;15.54;100.00;100507.69;5070931;28;20458;-51
2021/06/26 00:18:14;;;;;;;0.40;0.20;;;;;;;15.66;100.00;100509.00;5071045;28;20480;-50
2021/06/26 00:20:42;;;;;;;0.40;0.20;;;;;;;15.48;100.00;100510.66;5063098;28;20527;-50
2021/06/26 00:23:09;;;;;;;0.97;0.97;;;;;;;15.66;100.00;100515.22;5070931;28;20446;-51
2021/06/26 00:25:36;;;;;;;0.40;0.20;;;;;;;15.81;100.00;100515.44;5058124;28;20558;-50
2021/06/26 00:28:03;;;;;;;0.40;0.20;;;;;;;15.58;100.00;100516.47;5070942;28;20450;-51
2021/06/26 00:30:30;;;;;;;0.40;0.20;;;;;;;15.69;100.00;100512.38;5066354;28;20980;-50
2021/06/26 00:32:57;;;;;;;0.40;0.20;;;;;;;15.78;100.00;100508.44;5064774;28;20480;-51
2021/06/26 00:35:24;;;;;;;0.40;0.20;;;;;;;15.76;100.00;100514.78;5071260;28;20507;-50
2021/06/26 00:37:51;;;;;;;0.40;0.20;;;;;;;15.86;100.00;100510.72;5070387;28;20481;-50
2021/06/26 00:40:17;;;;;;;0.50;0.30;;;;;;;15.82;100.00;100511.81;5070952;28;20465;-51
2021/06/26 00:42:45;;;;;;;0.73;0.73;;;;;;;15.76;100.00;100513.00;5057919;28;21021;-51
2021/06/26 00:45:16;;;;;;;0.40;0.20;;;;;;;15.67;100.00;100518.75;5070928;28;20931;-51
2021/06/26 00:47:44;;;;;;;0.57;0.50;;;;;;;15.76;100.00;100509.41;5069425;28;20454;-50
2021/06/26 00:50:23;;;;;;;0.40;0.20;;;;;;;15.77;100.00;100512.06;5070715;28;20515;-51
2021/06/26 00:52:50;;;;;;;0.97;0.93;;;;;;;15.85;100.00;100504.50;5070636;28;20438;-50
2021/06/26 00:55:18;;;;;;;0.40;0.30;;;;;;;15.92;100.00;100494.38;5071113;28;20525;-51
2021/06/26 00:57:54;;;;;;;0.40;0.20;;;;;;;15.95;100.00;100502.25;5070632;28;20520;-51
2021/06/26 01:00:21;;;;;;;0.80;0.50;;;;;;;15.74;100.00;100505.94;5067874;28;20540;-51
2021/06/26 01:02:48;;;;;;;0.40;0.20;;;;;;;15.76;100.00;100504.06;5068928;28;20503;-51
2021/06/26 01:05:15;;;;;;;1.27;1.27;;;;;;;15.57;100.00;100510.22;5070584;28;20449;-50
2021/06/26 01:07:42;;;;;;;0.47;0.37;;;;;;;15.63;100.00;100509.13;5070487;28;20503;-51
2021/06/26 01:10:09;;;;;;;0.40;0.30;;;;;;;15.60;100.00;100512.81;5072282;28;20505;-50
2021/06/26 01:12:36;;;;;;;0.40;0.20;;;;;;;15.65;100.00;100509.94;5073946;28;20450;-50
2021/06/26 01:15:05;;;;;;;0.40;0.30;;;;;;;15.63;100.00;100514.50;5073633;28;20547;-51
2021/06/26 01:17:32;;;;;;;0.40;0.20;;;;;;;15.57;100.00;100512.03;5073723;28;20943;-51
2021/06/26 01:20:01;;;;;;;1.40;1.30;;;;;;;15.72;100.00;100513.19;5073825;28;20477;-51
2021/06/26 01:22:29;;;;;;;0.40;0.30;;;;;;;15.72;100.00;100513.19;5073764;28;20452;-51
2021/06/26 01:24:56;;;;;;;0.40;0.40;;;;;;;15.69;100.00;100508.84;5073630;28;20437;-51
2021/06/26 01:27:22;;;;;;;0.40;0.20;;;;;;;15.78;100.00;100512.91;5074089;28;20446;-51
2021/06/26 01:29:51;;;;;;;0.40;0.20;;;;;;;15.85;100.00;100504.50;5073445;28;20472;-51
2021/06/26 01:32:18;;;;;;;0.40;0.20;;;;;;;15.82;100.00;100499.28;5062661;28;20454;-51
2021/06/26 01:34:45;;;;;;;0.40;0.20;;;;;;;15.80;100.00;100498.50;5073235;28;20514;-51
2021/06/26 01:37:13;;;;;;;0.40;0.20;;;;;;;15.88;100.00;100493.63;5073969;28;20474;-51
2021/06/26 01:39:40;;;;;;;0.70;0.70;;;;;;;15.92;100.00;100505.97;5073642;28;20446;-51
2021/06/26 01:42:08;;;;;;;0.40;0.20;;;;;;;15.93;100.00;100499.66;5064932;28;20500;-51
2021/06/26 01:44:35;;;;;;;0.40;0.20;;;;;;;15.84;100.00;100501.91;5069564;28;20457;-51
2021/06/26 01:47:05;;;;;;;0.50;0.50;;;;;;;15.86;100.00;100503.56;5071817;28;20959;-51
2021/06/26 01:49:33;;;;;;;0.40;0.20;;;;;;;15.86;100.00;100497.31;5073486;28;20512;-51
2021/06/26 01:51:59;;;;;;;0.40;0.20;;;;;;;15.77;100.00;100506.69;5073445;28;20416;-51
2021/06/26 01:54:26;;;;;;;0.40;0.20;;;;;;;15.70;100.00;100500.72;5073245;28;21106;-51
2021/06/26 01:56:53;;;;;;;0.40;0.20;;;;;;;15.75;100.00;100503.19;5073633;28;20507;-51
2021/06/26 01:59:19;;;;;;;0.40;0.20;;;;;;;15.94;100.00;100495.16;5072915;28;20480;-51
2021/06/26 02:01:46;;;;;;;0.40;0.20;;;;;;;15.83;100.00;100494.81;5068706;28;20535;-51
2021/06/26 02:04:13;;;;;;;0.50;0.33;;;;;;;15.77;100.00;100487.06;5072968;28;20973;-51
2021/06/26 02:06:39;;;;;;;0.50;0.40;;;;;;;15.95;100.00;100487.03;5073343;28;20925;-51
2021/06/26 02:09:07;;;;;;;0.40;0.20;;;;;;;15.85;100.00;100483.06;5073116;28;20917;-51
2021/06/26 02:11:34;;;;;;;0.40;0.40;;;;;;;15.72;100.00;100483.69;5072912;28;20884;-51
2021/06/26 02:14:01;;;;;;;0.40;0.20;;;;;;;15.75;100.00;100491.59;5072878;28;20535;-51
2021/06/26 02:16:28;;;;;;;0.40;0.20;;;;;;;15.84;100.00;100497.41;5072839;28;20516;-51
2021/06/26 02:18:55;;;;;;;0.40;0.20;;;;;;;15.77;100.00;100493.28;5071232;28;20461;-51
2021/06/26 02:21:22;;;;;;;0.40;0.20;;;;;;;15.72;100.00;100494.44;5072633;28;20481;-51
2021/06/26 02:23:48;;;;;;;0.40;0.20;;;;;;;15.79;100.00;100495.88;5072371;28;20568;-51
2021/06/26 02:26:15;;;;;;;0.40;0.30;;;;;;;15.60;100.00;100498.53;5072518;28;20779;-51
2021/06/26 02:28:41;;;;;;;0.40;0.20;;;;;;;15.75;100.00;100497.81;5072624;28;20462;-51
2021/06/26 02:31:08;;;;;;;0.40;0.20;;;;;;;15.75;100.00;100497.81;5062841;28;20827;-51
2021/06/26 02:33:35;;;;;;;0.40;0.20;;;;;;;15.78;100.00;100497.72;5070262;28;20493;-51
2021/06/26 02:36:02;;;;;;;0.40;0.20;;;;;;;15.83;100.00;100500.16;5072487;28;20851;-51
2021/06/26 02:38:28;;;;;;;0.40;0.30;;;;;;;15.70;100.00;100506.09;5072126;28;20504;-51
2021/06/26 02:40:55;;;;;;;0.40;0.20;;;;;;;15.60;100.00;100499.41;5072259;28;20469;-51
2021/06/26 02:43:22;;;;;;;0.40;0.20;;;;;;;15.74;100.00;100506.81;5058851;28;20446;-51
2021/06/26 02:45:48;;;;;;;0.40;0.20;;;;;;;15.52;100.00;100506.91;5071338;28;20457;-51
2021/06/26 02:48:15;;;;;;;0.40;0.40;;;;;;;15.58;100.00;100506.63;5071092;28;20468;-51
2021/06/26 02:50:42;;;;;;;0.40;0.20;;;;;;;15.54;100.00;100509.50;5071942;28;20504;-51
2021/06/26 02:53:09;;;;;;;0.40;0.20;;;;;;;15.75;100.00;100507.69;5072092;28;20503;-51
2021/06/26 02:55:35;;;;;;;0.40;0.20;;;;;;;15.59;100.00;100507.47;5072029;28;20544;-51
2021/06/26 02:58:03;;;;;;;0.40;0.20;;;;;;;15.60;100.00;100507.44;5072104;28;20454;-51
2021/06/26 03:00:29;;;;;;;0.40;0.20;;;;;;;15.69;100.00;100508.84;5066550;28;20471;-51
2021/06/26 03:02:57;;;;;;;0.40;0.30;;;;;;;15.54;100.00;100510.38;5059039;28;20446;-51
2021/06/26 03:05:24;;;;;;;0.93;0.93;;;;;;;15.57;100.00;100507.56;5071968;28;20515;-51
2021/06/26 03:07:52;;;;;;;0.40;0.20;;;;;;;15.54;100.00;100502.34;5052060;28;20455;-51
2021/06/26 03:10:19;;;;;;;0.40;0.20;;;;;;;15.48;100.00;100507.09;5051868;28;20483;-51
2021/06/26 03:12:47;;;;;;;0.40;0.30;;;;;;;15.66;100.00;100511.66;5051828;28;20451;-51
2021/06/26 03:15:15;;;;;;;0.40;0.20;;;;;;;15.62;100.00;100519.00;5051358;28;21023;-51
2021/06/26 03:17:42;;;;;;;1.13;1.13;;;;;;;15.60;100.00;100511.94;5051840;28;20479;-51
2021/06/26 03:20:09;;;;;;;0.40;0.20;;;;;;;15.57;100.00;100515.59;5063868;28;20562;-51
2021/06/26 03:22:36;;;;;;;0.40;0.20;;;;;;;15.65;100.00;100515.28;5059715;28;20910;-51
2021/06/26 03:25:05;;;;;;;0.40;0.20;;;;;;;15.62;100.00;100521.66;5070503;28;20446;-51
2021/06/26 03:27:32;;;;;;;0.40;0.30;;;;;;;15.63;100.00;100514.50;5071420;28;20928;-51
2021/06/26 03:29:58;;;;;;;0.40;0.20;;;;;;;15.65;100.00;100513.47;5071102;28;20470;-56
2021/06/26 03:32:25;;;;;;;0.40;0.30;;;;;;;15.65;100.00;100510.81;5059720;28;20489;-51
2021/06/26 03:34:51;;;;;;;0.40;0.20;;;;;;;15.59;100.00;100507.47;5071163;28;20508;-51
2021/06/26 03:37:18;;;;;;;0.53;0.53;;;;;;;15.77;100.00;100501.34;5071415;28;20947;-52
2021/06/26 03:39:45;;;;;;;0.40;0.20;;;;;;;15.67;100.00;100508.03;5070903;28;20445;-52
2021/06/26 03:42:11;;;;;;;0.40;0.20;;;;;;;15.69;100.00;100499.00;5061843;28;20458;-53
2021/06/26 03:44:38;;;;;;;0.40;0.20;;;;;;;15.36;100.00;100501.38;5064656;28;21273;-52
2021/06/26 03:47:05;;;;;;;0.40;0.20;;;;;;;15.48;100.00;100509.78;5061028;28;20943;-52
2021/06/26 03:49:35;;;;;;;0.40;0.20;;;;;;;15.56;100.00;100507.63;5070861;28;20465;-52
2021/06/26 03:52:03;;;;;;;0.40;0.20;;;;;;;15.48;100.00;100507.09;5071643;28;20446;-52
2021/06/26 03:54:30;;;;;;;3.30;1.20;;;;;;;15.54;100.00;100501.47;5070934;28;20485;-52
2021/06/26 03:56:57;;;;;;;0.40;0.20;;;;;;;15.49;100.00;100503.47;5071086;28;20485;-52
2021/06/26 03:59:24;;;;;;;0.40;0.20;;;;;;;15.69;100.00;100503.47;5069949;28;20507;-52
2021/06/26 04:01:51;;;;;;;0.40;0.30;;;;;;;15.54;100.00;100507.69;5066416;28;20472;-52
2021/06/26 04:04:19;;;;;;;0.40;0.20;;;;;;;15.51;100.00;100505.16;5071226;28;20454;-52
2021/06/26 04:06:47;;;;;;;1.13;1.13;;;;;;;15.58;100.00;100511.09;5071177;28;20561;-52
2021/06/26 04:09:14;;;;;;;1.80;1.70;;;;;;;15.61;100.00;100517.22;5071105;28;20450;-52
2021/06/26 04:11:41;;;;;;;0.40;0.20;;;;;;;15.84;100.00;100515.31;5071127;28;20820;-53
2021/06/26 04:14:08;;;;;;;1.90;0.73;;;;;;;15.77;100.00;100511.19;5070904;28;20523;-53
2021/06/26 04:16:34;;;;;;;0.40;0.30;;;;;;;15.91;100.00;100508.72;5070387;28;20449;-53
2021/06/26 04:19:01;;;;;;;0.40;0.20;;;;;;;15.82;100.00;100517.19;5065148;28;20446;-53
2021/06/26 04:21:28;;;;;;;0.40;0.20;;;;;;;15.84;100.00;100515.31;5063145;28;20477;-51
2021/06/26 04:23:55;;;;;;;0.40;0.20;;;;;;;15.94;100.00;100517.47;5070923;28;20449;-52
2021/06/26 04:26:22;;;;;;;0.40;0.20;;;;;;;16.32;100.00;100516.59;5071074;28;20603;-52
2021/06/26 04:28:50;;;;;;;0.40;0.20;;;;;;;16.02;100.00;100522.47;5070921;28;20508;-52
2021/06/26 04:31:17;;;;;;;0.40;0.20;;;;;;;16.35;100.00;100519.13;5060311;28;20784;-52
2021/06/26 04:33:44;;;;;;;1.27;1.03;;;;;;;16.45;100.00;100521.28;5070241;28;20450;-52
2021/06/26 04:36:14;;;;;;;1.63;0.93;;;;;;;16.87;100.00;100515.63;5071130;28;20490;-52
2021/06/26 04:38:42;;;;;;;0.40;0.40;;;;;;;17.26;100.00;100524.38;5051258;28;20454;-52
2021/06/26 04:41:10;;;;;;;1.87;1.60;;;;;;;17.85;100.00;100526.59;5064515;28;20466;-52
2021/06/26 04:43:36;;;;;;;0.40;0.20;;;;;;;18.21;97.74;100529.03;5059551;28;20453;-52
2021/06/26 04:46:08;;;;;;;0.40;0.20;;;;;;;18.18;97.86;100522.97;5071913;28;20483;-52
2021/06/26 04:48:36;;;;;;;0.40;0.20;;;;;;;18.49;96.54;100527.47;5075366;28;20525;-52
2021/06/26 04:51:03;;;;;;;0.40;0.20;;;;;;;18.74;95.51;100533.22;5074135;28;20477;-52
2021/06/26 04:53:31;;;;;;;0.40;0.20;;;;;;;18.94;94.30;100534.75;5074644;28;21042;-52
2021/06/26 04:55:58;;;;;;;0.40;0.20;;;;;;;18.62;95.05;100526.66;5074425;28;20560;-52
2021/06/26 04:58:25;;;;;;;0.50;0.50;;;;;;;18.84;94.18;100528.16;5074811;28;20420;-52
2021/06/26 05:00:52;;;;;;;0.40;0.20;;;;;;;18.77;94.61;100534.84;5070489;28;20906;-52
2021/06/26 05:03:21;;;;;;;0.40;0.20;;;;;;;19.14;93.04;100536.25;5074884;28;20449;-52
2021/06/26 05:05:49;;;;;;;0.47;0.30;;;;;;;19.00;93.09;100537.06;5074296;28;21351;-52
2021/06/26 05:08:16;;;;;;;0.40;0.20;;;;;;;19.31;90.33;100528.00;5074416;28;21050;-54
2021/06/26 05:10:43;;;;;;;0.40;0.20;;;;;;;19.02;91.72;100534.28;5074304;28;20519;-53
2021/06/26 05:13:10;;;;;;;0.40;0.30;;;;;;;18.74;93.83;100532.34;5074422;28;20450;-53
2021/06/26 05:15:39;;;;;;;0.40;0.20;;;;;;;19.19;91.74;100526.94;5074305;28;20555;-53
2021/06/26 05:18:05;;;;;;;0.40;0.30;;;;;;;19.15;93.47;100528.06;5066814;28;20817;-53
2021/06/26 05:20:32;;;;;;;0.40;0.20;;;;;;;19.52;91.08;100528.53;5073366;28;20452;-52
2021/06/26 05:23:08;;;;;;;0.40;0.20;;;;;;;19.50;89.85;100535.84;5075005;28;20881;-52
2021/06/26 05:25:35;;;;;;;0.50;0.47;;;;;;;19.35;91.58;100537.66;5061282;28;20507;-52
2021/06/26 05:28:02;;;;;;;0.97;0.97;;;;;;;19.31;91.70;100532.50;5067326;28;20462;-53
2021/06/26 05:30:29;;;;;;;0.40;0.20;;;;;;;19.57;90.88;100529.13;5065851;28;20546;-52
2021/06/26 05:32:56;;;;;;;0.40;0.20;;;;;;;19.99;89.62;100536.34;5068144;28;20416;-52
2021/06/26 05:35:23;;;;;;;0.40;0.20;;;;;;;20.02;87.36;100529.91;5072680;28;20472;-52
2021/06/26 05:37:49;;;;;;;0.50;0.40;;;;;;;19.22;90.89;100536.66;5073561;28;20503;-52
2021/06/26 05:40:16;;;;;;;1.53;1.13;;;;;;;19.80;89.28;100533.09;5073986;28;20461;-52
2021/06/26 05:42:42;;;;;;;0.40;0.20;;;;;;;20.24;87.77;100529.38;5060733;28;20444;-52
2021/06/26 05:45:09;;;;;;;0.63;0.63;;;;;;;19.41;91.98;100531.88;5073575;28;20429;-53
2021/06/26 05:47:36;;;;;;;0.83;0.83;;;;;;;20.01;89.53;100534.44;5072323;28;20495;-52
2021/06/26 05:50:03;;;;;;;0.50;0.23;;;;;;;19.85;88.71;100535.50;5072205;28;21010;-51
2021/06/26 05:52:30;;;;;;;0.40;0.20;;;;;;;19.70;89.24;100538.19;5073757;28;20475;-52
2021/06/26 05:54:59;;;;;;;0.40;0.20;;;;;;;19.87;90.19;100547.03;5071970;28;20982;-51
2021/06/26 05:57:26;;;;;;;0.50;0.40;;;;;;;19.55;91.10;100536.44;5073654;28;20420;-53
2021/06/26 05:59:52;;;;;;;1.37;1.00;;;;;;;20.88;86.34;100538.69;5073240;28;20450;-53
2021/06/26 06:02:19;;;;;;;0.40;0.30;;;;;;;20.72;86.12;100538.84;5068850;28;20425;-53
2021/06/26 06:04:46;;;;;;;0.93;0.50;;;;;;;20.52;86.26;100539.28;5072234;28;20450;-52
2021/06/26 06:07:12;;;;;;;0.40;0.20;;;;;;;20.50;86.32;100533.97;5073218;28;20823;-53
2021/06/26 06:09:39;;;;;;;0.60;0.60;;;;;;;20.98;85.32;100529.84;5072896;28;20428;-53
2021/06/26 06:12:06;;;;;;;0.50;0.50;;;;;;;20.68;86.33;100542.69;5073352;28;20428;-53
2021/06/26 06:14:33;;;;;;;0.40;0.20;;;;;;;21.00;85.34;100541.41;5073026;28;20454;-53
2021/06/26 06:16:59;;;;;;;0.40;0.20;;;;;;;20.80;85.51;100544.59;5073070;28;20541;-53
2021/06/26 06:19:26;;;;;;;0.40;0.20;;;;;;;21.01;84.55;100550.41;5072820;28;20511;-53
2021/06/26 06:21:53;;;;;;;1.63;0.87;;;;;;;21.42;83.05;100546.72;5073291;28;20470;-51
2021/06/26 06:24:19;;;;;;;1.90;1.60;;;;;;;21.01;85.09;100536.88;5073064;28;20428;-52
2021/06/26 06:26:46;;;;;;;0.40;0.20;;;;;;;21.06;85.23;100542.81;5072822;28;20425;-53
2021/06/26 06:29:13;;;;;;;0.40;0.20;;;;;;;21.10;86.22;100548.88;5073034;28;20913;-53
2021/06/26 06:31:39;;;;;;;0.40;0.20;;;;;;;21.64;85.38;100548.78;5061512;28;20499;-53
2021/06/26 06:34:06;;;;;;;0.40;0.20;;;;;;;21.68;83.54;100548.47;5073045;28;20449;-53
2021/06/26 06:36:33;;;;;;;0.40;0.20;;;;;;;21.39;85.52;100545.09;5072635;28;20514;-53
2021/06/26 06:38:59;;;;;;;0.40;0.20;;;;;;;21.40;85.39;100552.25;5072688;28;20425;-53
2021/06/26 06:41:26;;;;;;;0.40;0.20;;;;;;;21.97;83.15;100556.34;5069240;28;20986;-53
2021/06/26 06:43:53;;;;;;;0.40;0.20;;;;;;;21.13;85.17;100551.41;5063452;28;20466;-53
2021/06/26 06:46:19;;;;;;;0.40;0.20;;;;;;;21.61;84.12;100551.69;5070456;28;20913;-53
2021/06/26 06:48:46;;;;;;;0.40;0.20;;;;;;;21.86;81.73;100549.00;5071561;28;20454;-53
2021/06/26 06:51:14;;;;;;;0.40;0.20;;;;;;;22.01;82.51;100556.00;5072142;28;20615;-53
2021/06/26 06:53:41;;;;;;;0.50;0.50;;;;;;;20.97;87.11;100546.16;5070991;28;20420;-53
2021/06/26 06:56:07;;;;;;;0.40;0.30;;;;;;;21.57;83.51;100551.91;5072007;28;20507;-52
2021/06/26 06:58:34;;;;;;;1.07;0.87;;;;;;;22.09;83.63;100550.09;5072364;28;21017;-52
2021/06/26 07:01:01;;;;;;;0.53;0.53;;;;;;;22.08;80.59;100548.38;5067516;28;20467;-52
2021/06/26 07:03:28;;;;;;;0.40;0.20;;;;;;;22.14;81.49;100553.31;5072424;28;20583;-52
2021/06/26 07:05:54;;;;;;;0.40;0.20;;;;;;;21.68;83.21;100551.19;5072413;28;20511;-53
2021/06/26 07:08:21;;;;;;;0.50;0.40;;;;;;;22.42;80.79;100557.59;5070197;28;20825;-53
2021/06/26 07:10:47;;;;;;;0.40;0.30;;;;;;;22.89;80.20;100555.91;5072006;28;20470;-52
2021/06/26 07:13:14;;;;;;;0.50;0.20;;;;;;;22.10;80.75;100558.09;5072362;28;20450;-53
2021/06/26 07:15:41;;;;;;;1.93;0.50;;;;;;;22.31;79.10;100554.78;5070466;28;20489;-53
2021/06/26 07:18:08;;;;;;;0.40;0.30;;;;;;;22.57;79.81;100552.88;5071852;28;20425;-53
2021/06/26 07:20:38;;;;;;;3.73;0.73;;;;;;;22.54;77.55;100548.56;5071867;28;20498;-53
2021/06/26 07:23:05;;;;;;;0.47;0.30;;;;;;;22.27;77.27;100542.47;5072203;28;20454;-54
2021/06/26 07:25:32;;;;;;;0.80;0.70;;;;;;;22.35;77.04;100542.78;5070225;28;20425;-54
2021/06/26 07:27:59;;;;;;;0.60;0.57;;;;;;;22.44;74.86;100545.66;5072642;28;20445;-53
2021/06/26 07:30:26;;;;;;;0.50;0.50;;;;;;;22.59;75.12;100542.78;5068240;28;20962;-54
2021/06/26 07:32:53;;;;;;;0.40;0.20;;;;;;;23.01;75.20;100530.56;5064408;28;20467;-53
2021/06/26 07:35:19;;;;;;;0.77;0.57;;;;;;;23.48;77.22;100526.91;5071635;28;20460;-54
2021/06/26 07:37:46;;;;;;;0.40;0.20;;;;;;;22.61;77.52;100530.84;5071774;28;20505;-54
2021/06/26 07:40:14;;;;;;;0.40;0.20;;;;;;;22.97;77.13;100526.38;5072059;28;20509;-54
2021/06/26 07:42:40;;;;;;;0.50;0.30;;;;;;;23.13;79.26;100534.19;5057084;28;20860;-53
2021/06/26 07:45:08;;;;;;;1.17;0.93;;;;;;;23.21;79.16;100527.22;5071738;28;20436;-55
2021/06/26 07:47:35;;;;;;;0.47;0.37;;;;;;;23.14;78.05;100527.78;5070814;28;20437;-55
2021/06/26 07:50:04;;;;;;;4.00;1.27;;;;;;;23.09;78.11;100533.56;5070456;28;20444;-55
2021/06/26 07:52:30;;;;;;;0.40;0.30;;;;;;;23.20;79.48;100533.63;5071773;28;20446;-55
2021/06/26 07:54:57;;;;;;;0.57;0.57;;;;;;;23.21;77.96;100523.63;5071337;28;20433;-55
2021/06/26 07:57:23;;;;;;;0.40;0.20;;;;;;;23.00;79.47;100523.41;5069713;28;20458;-54
2021/06/26 07:59:50;;;;;;;0.40;0.30;;;;;;;23.08;77.65;100529.13;5071267;28;20433;-55
2021/06/26 08:02:17;;;;;;;1.57;0.70;;;;;;;23.24;79.21;100520.69;5067044;28;20429;-55
2021/06/26 08:04:43;;;;;;;0.40;0.20;;;;;;;24.08;76.77;100516.72;5071405;28;20550;-55
2021/06/26 08:07:10;;;;;;;0.53;0.50;;;;;;;23.70;78.33;100514.38;5071429;28;20446;-55
2021/06/26 08:09:37;;;;;;;0.53;0.50;;;;;;;23.59;78.38;100510.69;5071106;28;20943;-56
2021/06/26 08:12:04;;;;;;;0.50;0.40;;;;;;;23.87;76.09;100506.63;5071389;28;20454;-55
2021/06/26 08:14:31;;;;;;;0.50;0.30;;;;;;;23.44;77.21;100500.16;5071411;28;20446;-55
2021/06/26 08:16:57;;;;;;;1.57;0.97;;;;;;;23.77;76.34;100500.19;5069942;28;20490;-55
2021/06/26 08:19:24;;;;;;;0.50;0.30;;;;;;;23.65;77.69;100495.75;5073232;28;20456;-55
2021/06/26 08:21:51;;;;;;;0.47;0.20;;;;;;;24.40;75.03;100500.53;5075444;28;20477;-55
2021/06/26 08:24:18;;;;;;;0.40;0.27;;;;;;;24.68;72.37;100489.09;5075494;28;21012;-55
2021/06/26 08:26:56;;;;;;;0.47;0.20;;;;;;;24.67;72.92;100495.53;5075337;28;20975;-55
2021/06/26 08:29:23;;;;;;;0.40;0.23;;;;;;;24.60;74.46;100501.59;5075484;28;20420;-55
2021/06/26 08:31:49;;;;;;;0.40;0.30;;;;;;;24.02;74.96;100487.34;5063770;28;20485;-55
2021/06/26 08:34:16;;;;;;;0.40;0.20;;;;;;;24.34;75.08;100492.88;5075389;28;20445;-55
2021/06/26 08:36:43;;;;;;;0.50;0.30;;;;;;;23.96;75.33;100498.69;5075365;28;20489;-55
2021/06/26 08:39:10;;;;;;;2.20;0.57;;;;;;;23.87;72.67;100498.47;5074843;28;20499;-55
2021/06/26 08:41:44;;;;;;;5.20;2.00;;;;;;;24.33;71.72;100494.75;5069727;28;20520;-55
2021/06/26 08:44:12;;;;;;;0.50;0.30;;;;;;;24.44;68.66;100493.84;5067123;28;20441;-55
2021/06/26 08:46:43;;;;;;;0.40;0.20;;;;;;;25.37;66.58;100491.38;5073528;28;20450;-55
2021/06/26 08:49:10;;;;;;;0.50;0.20;;;;;;;24.94;69.73;100495.00;5074682;28;20482;-55
2021/06/26 08:51:38;;;;;;;0.60;0.60;;;;;;;24.43;69.09;100487.56;5074710;28;20488;-55
2021/06/26 08:54:16;;;;;;;0.50;0.30;;;;;;;24.17;68.04;100495.09;5074410;28;20450;-55
2021/06/26 08:56:48;;;;;;;0.50;0.40;;;;;;;23.73;67.86;100489.72;5074487;28;20464;-55
2021/06/26 08:59:16;;;;;;;0.53;0.50;;;;;;;24.50;68.30;100494.19;5074749;28;20482;-55
2021/06/26 09:01:45;;;;;;;0.43;0.27;;;;;;;24.65;68.21;100492.03;5070472;28;20539;-55
2021/06/26 09:04:15;;;;;;;0.50;0.27;;;;;;;25.10;65.82;100484.59;5074279;28;20898;-55
2021/06/26 09:06:56;;;;;;;0.60;0.50;;;;;;;24.41;66.30;100494.97;5073265;28;20413;-55
2021/06/26 09:09:35;;;;;;;0.40;0.20;;;;;;;24.27;65.12;100487.06;5060402;28;20535;-55
2021/06/26 09:12:03;;;;;;;0.50;0.30;;;;;;;24.66;65.20;100491.03;5074294;28;20449;-56
2021/06/26 09:14:30;;;;;;;0.50;0.30;;;;;;;24.56;64.89;100487.41;5074340;28;20937;-55
2021/06/26 09:16:56;;;;;;;1.73;1.73;;;;;;;25.01;63.88;100479.94;5073297;28;20551;-56
2021/06/26 09:19:23;;;;;;;0.50;0.30;;;;;;;25.54;63.92;100485.31;5073980;28;20514;-55
2021/06/26 09:21:57;;;;;;;0.50;0.30;;;;;;;26.15;64.24;100489.88;5073814;28;20472;-56
2021/06/26 09:24:24;;;;;;;0.50;0.30;;;;;;;25.92;61.70;100486.53;5074278;28;20507;-56
2021/06/26 09:26:56;;;;;;;0.50;0.20;;;;;;;25.79;60.18;100488.63;5073880;28;20480;-55
2021/06/26 09:29:22;;;;;;;0.60;0.40;;;;;;;26.24;60.13;100495.38;5073875;28;20449;-55
2021/06/26 09:31:49;;;;;;;0.50;0.30;;;;;;;26.99;58.05;100490.31;5061483;28;20947;-55
2021/06/26 09:34:17;;;;;;;0.50;0.30;;;;;;;26.85;57.41;100491.59;5074191;28;20457;-56
2021/06/26 09:37:01;;;;;;;0.50;0.40;;;;;;;27.28;55.82;100495.78;5073389;28;20485;-56
2021/06/26 09:39:34;;;;;;;0.50;0.30;;;;;;;27.12;55.77;100490.91;5073843;28;20451;-55
2021/06/26 09:42:05;;;;;;;0.50;0.37;;;;;;;26.50;53.42;100489.44;5065615;28;20446;-56
2021/06/26 09:44:32;;;;;;;0.50;0.50;;;;;;;26.57;54.54;100490.56;5069232;28;20465;-56
2021/06/26 09:47:00;;;;;;;0.50;0.30;;;;;;;26.04;55.42;100488.16;5072361;28;20457;-55
2021/06/26 09:49:28;;;;;;;0.50;0.20;;;;;;;26.52;54.65;100485.56;5073786;28;20465;-56
2021/06/26 09:52:01;;;;;;;0.50;0.30;;;;;;;26.48;55.14;100475.09;5073295;28;20992;-55
2021/06/26 09:54:29;;;;;;;0.50;0.30;;;;;;;26.61;55.49;100481.13;5073503;28;20442;-55
2021/06/26 09:56:56;;;;;;;0.70;0.63;;;;;;;25.97;52.90;100486.97;5073274;28;20543;-56
2021/06/26 09:59:34;;;;;;;0.50;0.30;;;;;;;25.95;54.62;100478.06;5072845;28;20453;-56
2021/06/26 10:02:01;;;;;;;0.50;0.30;;;;;;;26.29;53.70;100478.59;5069150;28;20470;-55
2021/06/26 10:04:28;;;;;;;0.93;0.60;;;;;;;25.06;59.12;100474.94;5073201;28;20462;-55
2021/06/26 10:06:58;;;;;;;1.13;1.13;;;;;;;24.83;59.46;100475.19;5072988;28;20446;-55
2021/06/26 10:09:27;;;;;;;0.50;0.30;;;;;;;25.00;59.79;100474.59;5072685;28;20829;-55
2021/06/26 10:11:54;;;;;;;0.90;0.90;;;;;;;25.36;58.50;100476.03;5073582;28;20468;-55
2021/06/26 10:14:21;;;;;;;0.50;0.30;;;;;;;25.21;59.55;100467.31;5072903;28;20450;-55
2021/06/26 10:16:48;;;;;;;0.60;0.50;;;;;;;25.13;60.03;100463.56;5072577;28;20489;-55
2021/06/26 10:19:15;;;;;;;0.60;0.50;;;;;;;25.03;60.03;100469.78;5073981;28;20864;-55
2021/06/26 10:21:43;;;;;;;0.50;0.30;;;;;;;25.34;58.12;100461.66;5072399;28;20493;-55
2021/06/26 10:24:13;;;;;;;0.50;0.40;;;;;;;24.92;58.16;100460.78;5072487;28;20476;-55
2021/06/26 10:26:41;;;;;;;0.60;0.57;;;;;;;25.21;59.07;100458.28;5072399;28;20499;-55
2021/06/26 10:29:08;;;;;;;0.40;0.20;;;;;;;25.79;58.59;100455.94;5072655;28;20446;-55
2021/06/26 10:31:41;;;;;;;0.50;0.30;;;;;;;26.05;56.09;100453.59;5061274;28;20495;-55
2021/06/26 10:34:17;;;;;;;9.43;1.00;;;;;;;26.26;56.16;100459.78;5071641;28;20449;-56
2021/06/26 10:36:56;;;;;;;0.50;0.30;;;;;;;25.71;55.06;100458.47;5071320;28;20477;-55
2021/06/26 10:39:31;;;;;;;0.50;0.30;;;;;;;26.31;55.17;100441.13;5072533;28;20453;-55
2021/06/26 10:41:58;;;;;;;0.50;0.30;;;;;;;27.15;54.45;100452.41;5060254;28;20462;-56
2021/06/26 10:44:24;;;;;;;1.33;0.83;;;;;;;27.02;54.82;100440.94;5072085;28;20512;-55
2021/06/26 10:46:51;;;;;;;0.63;0.63;;;;;;;27.87;50.98;100443.56;5071267;28;20450;-56
2021/06/26 10:49:29;;;;;;;0.67;0.50;;;;;;;27.88;51.21;100449.91;5071925;28;20810;-56
2021/06/26 10:52:11;;;;;;;0.50;0.30;;;;;;;26.99;52.97;100444.78;5072698;28;20526;-55
2021/06/26 10:54:56;;;;;;;0.50;0.30;;;;;;;26.83;51.90;100442.63;5072725;28;20442;-56
2021/06/26 10:57:25;;;;;;;0.67;0.67;;;;;;;26.64;50.70;100442.66;5072443;28;20477;-55
2021/06/26 10:59:59;;;;;;;0.50;0.30;;;;;;;26.93;52.35;100445.38;5072502;28;20935;-55
2021/06/26 11:02:45;;;;;;;0.50;0.30;;;;;;;26.78;49.78;100444.09;5068327;28;20973;-55
2021/06/26 11:05:13;;;;;;;0.50;0.30;;;;;;;26.86;50.38;100436.03;5071674;28;20479;-55
2021/06/26 11:07:40;;;;;;;1.17;1.07;;;;;;;27.19;54.33;100448.38;5070488;28;20456;-55
2021/06/26 11:10:09;;;;;;;0.50;0.30;;;;;;;27.04;51.54;100445.25;5071856;28;20470;-56
2021/06/26 11:12:38;;;;;;;0.50;0.30;;;;;;;27.13;50.08;100444.34;5071918;28;20454;-55
2021/06/26 11:15:06;;;;;;;0.60;0.60;;;;;;;27.27;50.23;100437.56;5072001;28;20473;-55
2021/06/26 11:17:43;;;;;;;0.50;0.30;;;;;;;27.60;50.57;100436.19;5057467;28;20485;-55
2021/06/26 11:20:16;;;;;;;0.50;0.30;;;;;;;26.58;50.18;100433.16;5071714;28;20481;-55
2021/06/26 11:22:52;;;;;;;0.83;0.80;;;;;;;27.19;50.02;100433.88;5071380;28;20450;-55
2021/06/26 11:25:20;;;;;;;0.50;0.50;;;;;;;27.92;50.52;100430.31;5071490;28;20484;-55